GABSGUCY

Guest
Details From GABS - Bamako Senou
To GUCY - CONAKRY
Flight Number -
Tags generated
Created
Modified
Stats Distance 378 nm / 700 km
Max Altitude 28,600 ft / 8,717 m
Waypoints 5
Social Downloads 2
Likes 0
Share VATSIM

Download

Looking for another format? Having issues loading an existing format? Contact us
Advertisement - Login to hide

Notes

Basic altitude profile: - Ascent Rate: 2500ft/min - Ascent Speed: 250kts - Cruise Altitude: 25000ft - Cruise Speed: 420kts - Descent Rate: 1500ft/min - Descent Speed: 250kts Options: - Use NATs: yes - Use PACOTS: yes - Use low airways: yes - Use high airways: yes

Route

GABS NEGLO UA612 ILGOT GUCY

ID Type Via Altitude Latitude Longitude Leg Dist Tot Dist Heading (true) Name
O GABS APT - 0 ft / 0 m 12.53354˚ -7.94994˚ - 0 nm - Bamako Senou
NEGLO FIX - 28,200 ft / 8,595 m 11.93333˚ -9.15000˚ 79 nm 79 nm 243° / 243° -
KOLIP FIX UA612 (AWY-HI) 28,600 ft / 8,717 m 10.66667˚ -11.55000˚ 160 nm 239 nm 242° / 241° -
ILGOT FIX UA612 (AWY-HI) 24,000 ft / 7,315 m 10.15000˚ -12.51667˚ 64 nm 304 nm 242° / 241° -
O GUCY APT - 0 ft / 0 m 9.57690˚ -13.61188˚ 73 nm 377 nm 242° / 242° CONAKRY

Altitude Profile

Advertisement - Login to hide

Weather


0- 5 10 15 20 25 30 35+ Temperature / ° C

Clouds and Precipitation
Forecast for 2017-12-12 00:00 UTC. Updated 12 minutes ago

Ground ~20,000 ft ~40,000 ft Winds

GABS

Details ICAO GABS (BKO)
Name Bamako Senou
Region Mali
Timezone Africa/Bamako (UTC+0.0)
Stats Elevation 1,246 ft / 380 m (AMSL)
Location 12.533544° -7.949943°
Runways 1
Magnetic Variation 4.162° W

METAR

GABS 111930Z 03004KT 8000 NSC 21/04 Q1013 NOSIG

Decode

TAF

TAF TAF GABS 111710Z 1118/1224 01004G15KT 8000 NSC PROB40 TEMPO 1206/1212 4500 HZ

Decode

Departure Runways

ID Width Length Bearing (true) Bearing (mag) Surface Threshold Offset Overrun Length
06 148 ft / 45 m 8,888 ft / 2,709 m 56.51° 60.67° Asphalt 0 ft / 0 m 327 ft / 100 m
24 148 ft / 45 m 8,888 ft / 2,709 m 236.51° 240.67° Asphalt 0 ft / 0 m 327 ft / 100 m

GUCY

Details ICAO GUCY (CKY)
Name CONAKRY
Region Guinea
Timezone Africa/Conakry (UTC+0.0)
Stats Elevation 72 ft / 22 m (AMSL)
Location 9.576897° -13.611879°
Runways 1
Magnetic Variation 7.006° W

METAR

GUCY 111900Z 24004KT 4000 HZ NSC 28/20 Q1010 NOSIG

Decode

TAF

TAF GUCY 111100Z 1112/1218 32006KT 5000 HZ FEW016 SCT116 TEMPO 1205/1209 VRB02KT 3000 BR BECMG 1212/1216 26006KT 9999 FEW015 SCT110

Decode

Destination Runways

ID Width Length Bearing (true) Bearing (mag) Surface Threshold Offset Overrun Length
06 148 ft / 45 m 10,836 ft / 3,303 m 49.26° 56.27° Asphalt 0 ft / 0 m 197 ft / 60 m
24 148 ft / 45 m 10,836 ft / 3,303 m 229.27° 236.28° Asphalt 0 ft / 0 m 197 ft / 60 m

Popular Alternatives